الصفحة الرئيسية
METAR-TAF:

METAR-TAF

مطار :

سكاكا, السعودية

مطار الجوف المحلي

دائرة عرض: 29-47N, خط طول: 040-06E, ارتفاع: 689 متر

مراقبة الطقس الحالي

تاريخ ووقت الإصدار 39 دقيقة قبل الساعة 12:00UTC
ريح 11 عقدة من الجنوب/الجنوب الشرقي
درجة الحرارة 39°درجة مئوية
الرطوبة 11%
ضغط 1013 hPa
الرؤية 10 كم أو أكثر
الغيوم لا تقل 1500 م ولا وجود لمزنة ركامية السحاب الأسود

METAR: OESK 231200Z 16011KT CAVOK 39/03 Q1013 NOSIG

زمن: 15:39 (12:39 UTC)

توقعات

تاريخ ووقت الإصدار 1ساعة و 39 دقيقة قبل الساعة 11:00UTC
التوقعات صالحة من23 الساعة 12 UTC إلى 24 الساعة 18 UTC
ريح 5 عقدة من الشرق/الجنوب الشرقي تتزايد حتى 15 عقدة
الرؤية: 6000 متر
غيوم مفككة على ارتفاع 4000 قدم
مؤقت
من 23 الساعة 12 UTC إلى 23 الساعة 18 UTC
الرؤية: 3000 متر
هبوب الغبار

TAF: OESK 231100Z 2312/2418 12005G15KT 6000 BKN040 TEMPO 2312/2318 3000 BLDU

أرصاد الطقس والتوقعات من أكثر من 4000 مطار (تقارير الطقس للمطار METAR والتنبؤ بالطقس بالمطارTAF).

المحطات المتاحة هي النقط الصفراء والحمراء على الخريطة.

حرك المؤشر فوق النقطة لمعرفة اسم المحطة.

ثم انقر لمعرفة أرصاد وتوقعات الطقس.

لتغيير الخارطة: اضغط على الأزرار الخضراء مع رمز الصليب الأسود للتكبير. على الزر الأخضر مع شرطة للتصغير، أو على الأسهم الخضراء للخرائط المجاورة.


METAR-TAF: